Pagina principale
METAR-TAF:

METAR-TAF

Aeroporti :

Aeroporto di Esenboğa

Ankara Esenboğa, Turchia

latitudine: 40-07N, longitudine: 032-59E, altezza: 953 m

Osservazione

Il bollettino è stato emesso 19 minuti fa, alle 17:20 UTC
Vento 4 kt da est
Temperature 25°C
Umidità 22%
Pressione 1014 hPa
Visibilità 10 km o più
nessuna nube inferiore a 1500 m e nessun cumulonembo

METAR: LTAC 141720Z 09004KT CAVOK 25/02 Q1014 NOSIG

Ora: 20:39 (17:39 UTC)

Previsione

Il bollettino è stato emesso 59 minuti fa, alle 16:40 UTC
Previsione valida dal 14 alle 18 UTC al 15 alle 18 UTC
Vento 2 kt da direzioni variabili
Visibilità 10 km o più
nessuna nube inferiore a 1500 m e nessun cumulonembo

TAF: LTAC 141640Z 1418/1518 VRB02KT CAVOK

Osservazioni e previsioni meteorologiche di più di 4000 aeroporti (messaggi METAR e TAF).

Le stazioni disponibili sono rappresentate dai dischi gialli e rossi sulla carta.

Puntare il mouse per vedere il nome della stazione.

Clicca sopra per visualizzare le osservazioni e previsioni meteorologiche.

Per cambiare la mappa : fare clic sui pulsanti verdi con una croce nera per ingrandire, il pulsante verde con un trattino per diminuire, o sulla freccia verde per le mappe adiacenti.


METAR-TAF: